Time;durP1;ratioP1;P1;durP2;ratioP2;P2;SDS_P1;SDS_P2;PMS_P1;PMS_P2;Temp;Humidity;BMP_temperature;BMP_pressure;BME280_temperature;BME280_humidity;BME280_pressure;Samples;Min_cycle;Max_cycle;Signal;HPM_P1;HPM_P2
2021/05/04 00:02:02;;;;;;;;;;;;;;;;;;5029237;28;20015;-74
2021/05/04 00:04:27;;;;;;;;;;;;;;;;;;5028944;28;19921;-73
2021/05/04 00:06:53;;;;;;;;;;;;;;;;;;5028649;28;19913;-73
2021/05/04 00:09:19;;;;;;;;;;;;;;;;;;5027085;28;19915;-74
2021/05/04 00:11:45;;;;;;;;;;;;;;;;;;5010548;28;20134;-74
2021/05/04 00:14:11;;;;;;;;;;;;;;;;;;5029125;28;20430;-72
2021/05/04 00:16:37;;;;;;;;;;;;;;;;;;5029136;28;19906;-72
2021/05/04 00:19:03;;;;;;;;;;;;;;;;;;5014385;28;20373;-73
2021/05/04 00:21:29;;;;;;;;;;;;;;;;;;5032467;28;19909;-74
2021/05/04 00:23:55;;;;;;;;;;;;;;;;;;5031802;28;19979;-72
2021/05/04 00:26:20;;;;;;;;;;;;;;;;;;5032605;28;19959;-73
2021/05/04 00:28:46;;;;;;;;;;;;;;;;;;5032548;28;20330;-74
2021/05/04 00:31:14;;;;;;;;;;;;;;;;;;5031811;28;20011;-72
2021/05/04 00:33:40;;;;;;;;;;;;;;;;;;5014713;28;20356;-73
2021/05/04 00:36:05;;;;;;;;;;;;;;;;;;5031945;28;19913;-73
2021/05/04 00:38:31;;;;;;;;;;;;;;;;;;5030187;28;19917;-73
2021/05/04 00:40:57;;;;;;;;;;;;;;;;;;5031606;28;19910;-72
2021/05/04 00:43:23;;;;;;;;;;;;;;;;;;5028892;28;19910;-73
2021/05/04 00:45:49;;;;;;;;;;;;;;;;;;5032790;28;20055;-74
2021/05/04 00:48:15;;;;;;;;;;;;;;;;;;5031982;28;19909;-74
2021/05/04 00:50:41;;;;;;;;;;;;;;;;;;5031588;28;19916;-72
2021/05/04 00:53:07;;;;;;;;;;;;;;;;;;5031228;28;19959;-73
2021/05/04 00:55:33;;;;;;;;;;;;;;;;;;5031135;28;19935;-72
2021/05/04 00:58:03;;;;;;;;;;;;;;;;;;5031856;28;20344;-73
2021/05/04 01:00:29;;;;;;;;;;;;;;;;;;5061816;22;19925;-74
2021/05/04 01:02:54;;;;;;;;;;;;;;;;;;5052181;28;19909;-75
2021/05/04 01:05:20;;;;;;;;;;;;;;;;;;5051565;28;20004;-75
2021/05/04 01:07:46;;;;;;;;;;;;;;;;;;5051182;28;20373;-74
2021/05/04 01:10:12;;;;;;;;;;;;;;;;;;5050617;28;19999;-75
2021/05/04 01:12:38;;;;;;;;;;;;;;;;;;5049238;28;20241;-75
2021/05/04 01:15:04;;;;;;;;;;;;;;;;;;5031771;28;20293;-75
2021/05/04 01:17:30;;;;;;;;;;;;;;;;;;5039683;28;19915;-75
2021/05/04 01:19:56;;;;;;;;;;;5.10;99.90;;;;;;5050875;28;20011;-75
2021/05/04 01:22:22;;;;;;;;;;;5.10;99.90;;;;;;5049959;28;20086;-75
2021/05/04 01:24:47;;;;;;;;;;;4.80;99.90;;;;;;5012764;28;19920;-75
2021/05/04 01:27:13;;;;;;;;;;;4.70;99.90;;;;;;5012397;28;19909;-75
2021/05/04 01:29:39;;;;;;;;;;;4.60;99.90;;;;;;5009786;28;19929;-75
2021/05/04 01:32:05;;;;;;;;;;;4.60;99.90;;;;;;5012012;28;19917;-75
2021/05/04 01:34:30;;;;;;;;;;;4.50;99.90;;;;;;5011535;28;19987;-75
2021/05/04 01:36:55;;;;;;;;;;;4.50;99.90;;;;;;5011584;28;19909;-75
2021/05/04 01:39:24;;;;;;;;;;;4.50;99.90;;;;;;5010011;28;19937;-75
2021/05/04 01:41:49;;;;;;;;;;;4.40;99.90;;;;;;5012011;28;19952;-75
2021/05/04 01:44:15;;;;;;;;;;;4.30;99.90;;;;;;5023812;28;19964;-74
2021/05/04 01:46:40;;;;;;;;;;;4.30;99.90;;;;;;5031529;28;19909;-74
2021/05/04 01:49:07;;;;;;;;;;;4.30;99.90;;;;;;5030957;28;20219;-74
2021/05/04 01:51:33;;;;;;;;;;;4.30;99.90;;;;;;5030634;28;19913;-75
2021/05/04 01:53:58;;;;;;;;;;;4.30;99.90;;;;;;5030236;28;20005;-75
2021/05/04 01:56:24;;;;;;;;;;;4.30;99.90;;;;;;5031236;28;20258;-75
2021/05/04 01:58:50;;;;;;;;;;;4.20;99.90;;;;;;5030373;28;19920;-74
2021/05/04 02:01:16;;;;;;;;;;;4.10;99.90;;;;;;5030420;28;19920;-74
2021/05/04 02:03:42;;;;;;;;;;;4.10;99.90;;;;;;5031019;28;19971;-75
2021/05/04 02:06:07;;;;;;;;;;;4.10;99.90;;;;;;5031010;28;19909;-75
2021/05/04 02:08:33;;;;;;;;;;;4.10;99.90;;;;;;5030883;28;19971;-75
2021/05/04 02:10:59;;;;;;;;;;;4.00;99.90;;;;;;5013868;28;20456;-75
2021/05/04 02:13:24;;;;;;;;;;;4.10;99.90;;;;;;5032496;28;19919;-75
2021/05/04 02:15:50;;;;;;;;;;;4.10;99.90;;;;;;5032153;28;19913;-75
2021/05/04 02:18:16;;;;;;;;;;;4.20;99.90;;;;;;5042588;28;19913;-76
2021/05/04 02:20:41;;;;;;;;;;;4.20;99.90;;;;;;5050579;28;19963;-75
2021/05/04 02:23:07;;;;;;;;;;;4.20;99.90;;;;;;5051130;28;20004;-75
2021/05/04 02:25:32;;;;;;;;;;;4.20;99.90;;;;;;5051602;28;19915;-75
2021/05/04 02:27:58;;;;;;;;;;;4.10;99.90;;;;;;5052342;28;20543;-75
2021/05/04 02:30:23;;;;;;;;;;;4.10;99.90;;;;;;5051226;28;19955;-75
2021/05/04 02:32:49;;;;;;;;;;;4.10;99.90;;;;;;5051707;28;19960;-75
2021/05/04 02:35:15;;;;;;;;;;;4.00;99.90;;;;;;5050636;28;19909;-74
2021/05/04 02:37:40;;;;;;;;;;;4.00;99.90;;;;;;5050517;28;20062;-75
2021/05/04 02:40:06;;;;;;;;;;;4.00;99.90;;;;;;5033076;28;19909;-75
2021/05/04 02:42:31;;;;;;;;;;;4.00;99.90;;;;;;5051557;28;19909;-75
2021/05/04 02:44:57;;;;;;;;;;;4.00;99.90;;;;;;5038378;28;19971;-75
2021/05/04 02:47:22;;;;;;;;;;;4.00;99.90;;;;;;5032377;28;19937;-75
2021/05/04 02:49:48;;;;;;;;;;;4.00;99.90;;;;;;5031284;28;19923;-74
2021/05/04 02:52:13;;;;;;;;;;;4.00;99.90;;;;;;5031161;28;19927;-75
2021/05/04 02:54:39;;;;;;;;;;;4.10;99.90;;;;;;5032088;28;20340;-75
2021/05/04 02:57:04;;;;;;;;;;;4.10;99.90;;;;;;5032025;28;20376;-74
2021/05/04 02:59:30;;;;;;;;;;;4.10;99.90;;;;;;5012933;28;20395;-75
2021/05/04 03:01:56;;;;;;;;;;;4.00;99.90;;;;;;5032409;28;19920;-74
2021/05/04 03:04:21;;;;;;;;;;;4.10;99.90;;;;;;5031524;28;19978;-74
2021/05/04 03:06:47;;;;;;;;;;;4.10;99.90;;;;;;5031919;28;19932;-74
2021/05/04 03:09:12;;;;;;;;;;;4.00;99.90;;;;;;5030853;28;19909;-75
2021/05/04 03:11:38;;;;;;;;;;;3.90;99.90;;;;;;5031979;28;19924;-74
2021/05/04 03:14:03;;;;;;;;;;;4.00;99.90;;;;;;5032165;28;20378;-74
2021/05/04 03:16:29;;;;;;;;;;;3.90;99.90;;;;;;5031416;28;19920;-75
2021/05/04 03:18:54;;;;;;;;;;;3.90;99.90;;;;;;5030609;28;20321;-73
2021/05/04 03:21:20;;;;;;;;;;;3.80;99.90;;;;;;5028973;28;19909;-74
2021/05/04 03:23:47;;;;;;;;;;;3.80;99.90;;;;;;5027989;28;20003;-75
2021/05/04 03:26:14;;;;;;;;;;;3.80;99.90;;;;;;5029537;28;19909;-74
2021/05/04 03:28:39;;;;;;;;;;;3.80;99.90;;;;;;5029211;28;19940;-74
2021/05/04 03:31:05;;;;;;;;;;;3.70;99.90;;;;;;5028661;28;19916;-75
2021/05/04 03:33:30;;;;;;;;;;;3.70;99.90;;;;;;5028954;28;19959;-74
2021/05/04 03:35:56;;;;;;;;;;;3.70;99.90;;;;;;5028468;28;20008;-74
2021/05/04 03:38:21;;;;;;;;;;;3.60;99.90;;;;;;5028147;28;20393;-74
2021/05/04 03:40:47;;;;;;;;;;;3.60;99.90;;;;;;5028512;28;19916;-74
2021/05/04 03:43:12;;;;;;;;;;;3.60;99.90;;;;;;5029295;28;19909;-74
2021/05/04 03:45:38;;;;;;;;;;;3.60;99.90;;;;;;5029198;28;19948;-75
2021/05/04 03:48:04;;;;;;;;;;;3.60;99.90;;;;;;5029567;28;20258;-75
2021/05/04 03:50:29;;;;;;;;;;;3.60;99.90;;;;;;5027156;28;20348;-74
2021/05/04 03:52:56;;;;;;;;;;;3.70;99.90;;;;;;5026754;28;19913;-75
2021/05/04 03:55:22;;;;;;;;;;;3.70;99.90;;;;;;5033022;28;20392;-73
2021/05/04 03:57:48;;;;;;;;;;;3.70;99.90;;;;;;5033643;28;19913;-75
2021/05/04 04:00:14;;;;;;;;;;;3.70;99.90;;;;;;5033507;28;19921;-74
2021/05/04 04:02:40;;;;;;;;;;;3.80;99.90;;;;;;5033017;28;20370;-74
2021/05/04 04:05:06;;;;;;;;;;;3.90;99.90;;;;;;5034877;28;19909;-74
2021/05/04 04:07:32;;;;;;;;;;;3.90;99.90;;;;;;5035111;28;19910;-74
2021/05/04 04:09:57;;;;;;;;;;;3.90;99.90;;;;;;5034915;28;20277;-74
2021/05/04 04:12:24;;;;;;;;;;;4.00;99.90;;;;;;5034719;28;19913;-76
2021/05/04 04:14:50;;;;;;;;;;;4.00;99.90;;;;;;5034334;28;19909;-74
2021/05/04 04:17:15;;;;;;;;;;;4.00;99.90;;;;;;5033863;28;19913;-74
2021/05/04 04:19:41;;;;;;;;;;;4.00;99.90;;;;;;5032439;28;19913;-73
2021/05/04 04:22:06;;;;;;;;;;;4.00;99.90;;;;;;5033207;28;19909;-75
2021/05/04 04:24:32;;;;;;;;;;;4.10;99.90;;;;;;5032720;28;19921;-75
2021/05/04 04:26:57;;;;;;;;;;;4.20;99.90;;;;;;5028059;28;19917;-75
2021/05/04 04:29:23;;;;;;;;;;;4.30;99.90;;;;;;5024209;28;19909;-75
2021/05/04 04:31:48;;;;;;;;;;;4.40;99.90;;;;;;5015161;28;19953;-75
2021/05/04 04:34:14;;;;;;;;;;;4.50;99.90;;;;;;5017072;28;19925;-74
2021/05/04 04:36:39;;;;;;;;;;;4.70;99.90;;;;;;5014564;28;20650;-75
2021/05/04 04:39:05;;;;;;;;;;;4.90;99.90;;;;;;5031256;28;20239;-74
2021/05/04 04:41:30;;;;;;;;;;;5.00;99.90;;;;;;5024447;28;19913;-74
2021/05/04 04:43:56;;;;;;;;;;;5.10;99.90;;;;;;5025634;28;20402;-74
2021/05/04 04:46:21;;;;;;;;;;;5.20;99.90;;;;;;5024236;28;19921;-74
2021/05/04 04:48:47;;;;;;;;;;;5.20;99.90;;;;;;5021019;28;19924;-74
2021/05/04 04:51:13;;;;;;;;;;;5.30;99.90;;;;;;5020883;28;19917;-74
2021/05/04 04:53:38;;;;;;;;;;;5.40;99.90;;;;;;5027236;28;20004;-74
2021/05/04 04:56:04;;;;;;;;;;;5.40;99.90;;;;;;5022704;28;19919;-72
2021/05/04 04:58:29;;;;;;;;;;;5.50;99.90;;;;;;5004741;28;19917;-73
2021/05/04 05:00:55;;;;;;;;;;;5.60;99.90;;;;;;5017952;28;20432;-72
2021/05/04 05:03:23;;;;;;;;;;;5.60;99.90;;;;;;5014469;28;20395;-74
2021/05/04 05:05:50;;;;;;;;;;;5.60;99.90;;;;;;4996762;28;20926;-73
2021/05/04 05:08:15;;;;;;;;;;;5.60;99.90;;;;;;5003919;28;19927;-73
2021/05/04 05:10:41;;;;;;;;;;;5.70;99.90;;;;;;5006708;28;20035;-71
2021/05/04 05:13:06;;;;;;;;;;;5.90;99.90;;;;;;5017434;28;20011;-72
2021/05/04 05:15:37;;;;;;;;;;;6.10;99.90;;;;;;5012044;28;20525;-71
2021/05/04 05:18:05;;;;;;;;;;;6.30;99.90;;;;;;5021412;28;19917;-72
2021/05/04 05:20:31;;;;;;;;;;;6.30;99.90;;;;;;5012824;28;19939;-74
2021/05/04 05:22:57;;;;;;;;;;;6.40;99.90;;;;;;5019931;28;20770;-74
2021/05/04 05:25:22;;;;;;;;;;;6.60;99.90;;;;;;5030198;28;19912;-73
2021/05/04 05:27:48;;;;;;;;;;;6.70;99.90;;;;;;5024302;28;20048;-74
2021/05/04 05:30:13;;;;;;;;;;;6.90;99.90;;;;;;5020868;28;20540;-75
2021/05/04 05:32:38;;;;;;;;;;;7.00;99.90;;;;;;5025138;28;19945;-74
2021/05/04 05:35:04;;;;;;;;;;;7.20;99.90;;;;;;5019402;28;19920;-75
2021/05/04 05:37:30;;;;;;;;;;;7.30;99.90;;;;;;5017549;28;19976;-74
2021/05/04 05:39:55;;;;;;;;;;;7.40;99.90;;;;;;5017051;28;19919;-74
2021/05/04 05:42:21;;;;;;;;;;;7.40;99.90;;;;;;5022526;28;19925;-74
2021/05/04 05:44:46;;;;;;;;;;;7.40;99.90;;;;;;5025387;28;19949;-74
2021/05/04 05:47:12;;;;;;;;;;;7.40;99.90;;;;;;5014821;28;19913;-74
2021/05/04 05:49:39;;;;;;;;;;;7.60;99.90;;;;;;5022586;28;20329;-74
2021/05/04 05:52:05;;;;;;;;;;;7.70;99.90;;;;;;5026881;28;19917;-75
2021/05/04 05:54:31;;;;;;;;;;;7.80;99.90;;;;;;5035128;28;19913;-74
2021/05/04 05:56:57;;;;;;;;;;;8.00;99.90;;;;;;5044343;28;19923;-76
2021/05/04 05:59:22;;;;;;;;;;;8.20;99.90;;;;;;5035173;28;19967;-74
2021/05/04 06:01:48;;;;;;;;;;;8.50;99.90;;;;;;5029419;28;19928;-74
2021/05/04 06:04:14;;;;;;;;;;;8.80;99.90;;;;;;5020141;28;19918;-74
2021/05/04 06:06:39;;;;;;;;;;;8.90;99.90;;;;;;5025070;28;19914;-73
2021/05/04 06:09:05;;;;;;;;;;;9.20;99.90;;;;;;5029665;28;20393;-73
2021/05/04 06:11:30;;;;;;;;;;;9.60;99.90;;;;;;5021575;28;20015;-74
2021/05/04 06:13:56;;;;;;;;;;;9.90;99.90;;;;;;5022832;28;19917;-74
2021/05/04 06:16:21;;;;;;;;;;;10.60;99.90;;;;;;5027942;28;19917;-73
2021/05/04 06:18:47;;;;;;;;;;;11.10;99.90;;;;;;5022161;28;19922;-75
2021/05/04 06:21:12;;;;;;;;;;;11.40;99.90;;;;;;5019346;28;19925;-74
2021/05/04 06:23:38;;;;;;;;;;;11.40;99.90;;;;;;5021949;28;20428;-74
2021/05/04 06:26:04;;;;;;;;;;;11.20;99.90;;;;;;5017987;28;19913;-72
2021/05/04 06:28:30;;;;;;;;;;;10.80;99.90;;;;;;5027293;28;19920;-74
2021/05/04 06:30:56;;;;;;;;;;;10.80;99.90;;;;;;5001854;28;20334;-74
2021/05/04 06:33:21;;;;;;;;;;;10.90;99.90;;;;;;5020230;28;19913;-75
2021/05/04 06:35:49;;;;;;;;;;;11.30;99.90;;;;;;5024433;28;20032;-74
2021/05/04 06:38:16;;;;;;;;;;;11.70;99.90;;;;;;5019296;28;19917;-73
2021/05/04 06:40:42;;;;;;;;;;;12.60;99.90;;;;;;5023610;28;20285;-72
2021/05/04 06:43:08;;;;;;;;;;;13.90;99.90;;;;;;5023128;28;19917;-72
2021/05/04 06:45:33;;;;;;;;;;;15.10;99.90;;;;;;5003183;28;19913;-71
2021/05/04 06:47:59;;;;;;;;;;;16.30;99.90;;;;;;5022822;28;20006;-72
2021/05/04 06:50:25;;;;;;;;;;;17.10;99.90;;;;;;5020128;28;20370;-72
2021/05/04 06:52:51;;;;;;;;;;;16.80;99.90;;;;;;5020554;28;20393;-74
2021/05/04 06:55:16;;;;;;;;;;;16.30;99.90;;;;;;5021574;28;19959;-72
2021/05/04 06:57:42;;;;;;;;;;;16.30;99.90;;;;;;5020290;28;19947;-73
2021/05/04 07:00:08;;;;;;;;;;;16.80;99.90;;;;;;5020227;28;20322;-74
2021/05/04 07:02:34;;;;;;;;;;;17.20;99.90;;;;;;5001953;28;19913;-75
2021/05/04 07:04:59;;;;;;;;;;;17.50;99.90;;;;;;5001205;28;19955;-75
2021/05/04 07:07:25;;;;;;;;;;;17.60;98.70;;;;;;5020298;28;19939;-75
2021/05/04 07:09:50;;;;;;;;;;;17.30;98.30;;;;;;5022854;28;19914;-74
2021/05/04 07:12:16;;;;;;;;;;;17.20;98.70;;;;;;5025547;28;19962;-74
2021/05/04 07:14:41;;;;;;;;;;;17.10;98.60;;;;;;5028982;28;19936;-73
2021/05/04 07:17:07;;;;;;;;;;;16.70;98.20;;;;;;5025053;28;19999;-74
2021/05/04 07:19:32;;;;;;;;;;;16.40;98.70;;;;;;5019176;28;19917;-74
2021/05/04 07:21:58;;;;;;;;;;;16.20;98.80;;;;;;5033879;28;19913;-74
2021/05/04 07:24:24;;;;;;;;;;;16.10;99.30;;;;;;5012734;28;19920;-74
2021/05/04 07:26:50;;;;;;;;;;;15.50;99.50;;;;;;5013049;28;19918;-73
2021/05/04 07:29:16;;;;;;;;;;;14.90;99.80;;;;;;5017697;28;20023;-73
2021/05/04 07:31:42;;;;;;;;;;;14.20;99.90;;;;;;4998509;28;20099;-73
2021/05/04 07:34:08;;;;;;;;;;;14.10;99.90;;;;;;5016672;28;20371;-73
2021/05/04 07:36:33;;;;;;;;;;;14.40;99.90;;;;;;5020494;28;19913;-74
2021/05/04 07:38:59;;;;;;;;;;;14.30;99.90;;;;;;5023030;28;20005;-74
2021/05/04 07:41:25;;;;;;;;;;;13.90;99.90;;;;;;5014327;28;19913;-74
2021/05/04 07:43:50;;;;;;;;;;;14.00;99.90;;;;;;5025553;28;20035;-75
2021/05/04 07:46:16;;;;;;;;;;;13.90;99.90;;;;;;5026556;28;19913;-74
2021/05/04 07:48:41;;;;;;;;;;;14.00;99.90;;;;;;5021888;28;20007;-75
2021/05/04 07:51:07;;;;;;;;;;;13.80;99.90;;;;;;5017426;28;19990;-75
2021/05/04 07:53:33;;;;;;;;;;;13.80;99.90;;;;;;5014339;28;19913;-75
2021/05/04 07:55:58;;;;;;;;;;;13.90;99.90;;;;;;5013737;28;20344;-74
2021/05/04 07:58:24;;;;;;;;;;;14.20;99.90;;;;;;5032405;28;19980;-75
2021/05/04 08:00:49;;;;;;;;;;;14.50;99.90;;;;;;5001417;28;19930;-75
2021/05/04 08:03:15;;;;;;;;;;;14.90;99.90;;;;;;5023168;28;19917;-75
2021/05/04 08:05:41;;;;;;;;;;;15.20;99.90;;;;;;5028403;28;19913;-76
2021/05/04 08:08:06;;;;;;;;;;;15.80;99.90;;;;;;5029053;28;20007;-75
2021/05/04 08:10:34;;;;;;;;;;;16.00;99.90;;;;;;5018908;28;19928;-74
2021/05/04 08:13:01;;;;;;;;;;;16.10;99.90;;;;;;4997678;28;19921;-74
2021/05/04 08:15:27;;;;;;;;;;;16.70;99.80;;;;;;5024122;28;19913;-74
2021/05/04 08:18:07;;;;;;;;;;;18.00;97.90;;;;;;5026032;28;19917;-73
2021/05/04 08:20:34;;;;;;;;;;;18.90;96.30;;;;;;5023433;28;20321;-73
2021/05/04 08:23:00;;;;;;;;;;;19.40;94.10;;;;;;5013083;28;20315;-74
2021/05/04 08:25:26;;;;;;;;;;;19.80;99.90;;;;;;5018919;28;19929;-74
2021/05/04 08:27:52;;;;;;;;;;;20.60;99.90;;;;;;5020262;28;19925;-74
2021/05/04 08:30:17;;;;;;;;;;;20.90;99.90;;;;;;5023558;28;20370;-73
2021/05/04 08:32:44;;;;;;;;;;;21.20;99.90;;;;;;5025082;28;20284;-73
2021/05/04 08:35:10;;;;;;;;;;;21.80;99.90;;;;;;5019458;28;19939;-73
2021/05/04 08:37:35;;;;;;;;;;;21.90;99.90;;;;;;5015866;28;20054;-73
2021/05/04 08:40:01;;;;;;;;;;;22.30;99.90;;;;;;5017730;28;19952;-73
2021/05/04 08:42:30;;;;;;;;;;;22.50;99.90;;;;;;5018305;28;20362;-73
2021/05/04 08:44:55;;;;;;;;;;;23.00;99.90;;;;;;5027320;28;19948;-74
2021/05/04 08:47:22;;;;;;;;;;;23.60;99.90;;;;;;5027526;28;20336;-74
2021/05/04 08:49:48;;;;;;;;;;;23.60;99.90;;;;;;5029716;28;20316;-73
2021/05/04 08:52:13;;;;;;;;;;;23.80;99.90;;;;;;5020801;28;19927;-74
2021/05/04 08:54:39;;;;;;;;;;;23.60;99.90;;;;;;5023013;28;20437;-74
2021/05/04 08:57:05;;;;;;;;;;;23.40;99.90;;;;;;5020393;28;19928;-74
2021/05/04 08:59:30;;;;;;;;;;;23.20;99.90;;;;;;5013235;28;20389;-73
2021/05/04 09:01:56;;;;;;;;;;;22.60;99.90;;;;;;5030981;28;19925;-73
2021/05/04 09:04:26;;;;;;;;;;;22.30;99.90;;;;;;5021133;28;19914;-73
2021/05/04 09:06:54;;;;;;;;;;;21.70;99.90;;;;;;5023496;28;20039;-74
2021/05/04 09:09:32;;;;;;;;;;;21.30;99.90;;;;;;5021626;28;19912;-74
2021/05/04 09:20:34;;;;;;;;;;;22.50;99.90;;;;;;5014426;28;20012;-73
2021/05/04 09:22:32;;;;;;;;;;;22.50;99.90;;;;;;5014503;28;19928;-73
2021/05/04 09:24:58;;;;;;;;;;;22.00;99.90;;;;;;5025955;28;19917;-73
2021/05/04 09:27:23;;;;;;;;;;;21.90;99.90;;;;;;5007155;28;20267;-73
2021/05/04 09:29:53;;;;;;;;;;;21.90;99.90;;;;;;5025259;28;19959;-74
2021/05/04 09:32:23;;;;;;;;;;;21.80;99.90;;;;;;5021954;28;19928;-74
2021/05/04 09:34:49;;;;;;;;;;;21.80;99.90;;;;;;5029201;28;19940;-75
2021/05/04 09:37:29;;;;;;;;;;;21.90;99.90;;;;;;5022893;28;20461;-74
2021/05/04 09:39:55;;;;;;;;;;;20.80;99.90;;;;;;5014968;28;19914;-73
2021/05/04 09:42:21;;;;;;;;;;;19.80;99.90;;;;;;5023380;28;20017;-75
2021/05/04 09:44:47;;;;;;;;;;;19.60;99.90;;;;;;5017697;28;19965;-75
2021/05/04 09:47:20;;;;;;;;;;;19.60;99.90;;;;;;5017862;28;19999;-75
2021/05/04 09:49:45;;;;;;;;;;;19.40;99.90;;;;;;5012173;28;19913;-74
2021/05/04 09:52:29;;;;;;;;;;;19.30;99.90;;;;;;5010400;28;19928;-74
2021/05/04 09:55:05;;;;;;;;;;;19.00;99.90;;;;;;5022235;28;19913;-75
2021/05/04 09:57:34;;;;;;;;;;;19.40;99.90;;;;;;5028909;28;20451;-75
2021/05/04 10:00:00;;;;;;;;;;;19.90;99.90;;;;;;5020900;28;19918;-73
2021/05/04 10:02:27;;;;;;;;;;;20.30;99.90;;;;;;5017529;28;20000;-73
2021/05/04 10:04:53;;;;;;;;;;;20.40;99.90;;;;;;5030753;28;19920;-74
2021/05/04 10:07:20;;;;;;;;;;;20.90;99.90;;;;;;5029289;28;20254;-72
2021/05/04 10:09:46;;;;;;;;;;;21.00;99.90;;;;;;5019214;28;20364;-75
2021/05/04 10:12:12;;;;;;;;;;;20.70;99.90;;;;;;5015063;28;19913;-74
2021/05/04 10:14:40;;;;;;;;;;;20.10;99.90;;;;;;5019669;28;19943;-74
2021/05/04 10:17:05;;;;;;;;;;;19.60;99.90;;;;;;5013919;28;19917;-73
2021/05/04 10:19:31;;;;;;;;;;;19.50;99.90;;;;;;5017692;28;20008;-74
2021/05/04 10:21:57;;;;;;;;;;;20.30;99.90;;;;;;5030745;28;19924;-74
2021/05/04 10:24:22;;;;;;;;;;;21.20;99.90;;;;;;5016314;28;19918;-73
2021/05/04 10:26:50;;;;;;;;;;;21.80;99.90;;;;;;5023659;28;19924;-73
2021/05/04 10:29:16;;;;;;;;;;;22.00;99.90;;;;;;5027389;28;19952;-73
2021/05/04 10:31:46;;;;;;;;;;;21.70;99.90;;;;;;5029204;28;19965;-74
2021/05/04 10:34:24;;;;;;;;;;;21.70;99.90;;;;;;5019954;28;20376;-74
2021/05/04 10:36:51;;;;;;;;;;;22.30;99.90;;;;;;5018064;28;20566;-73
2021/05/04 10:39:38;;;;;;;;;;;22.90;99.90;;;;;;5019806;28;19913;-74
2021/05/04 10:42:05;;;;;;;;;;;23.10;99.90;;;;;;5022759;28;19917;-74
2021/05/04 10:44:50;;;;;;;;;;;23.90;99.90;;;;;;5023867;28;19929;-73
2021/05/04 10:47:36;;;;;;;;;;;23.50;99.90;;;;;;5019150;28;19963;-74
2021/05/04 10:50:02;;;;;;;;;;;24.00;99.90;;;;;;4993959;28;19917;-74
2021/05/04 10:52:46;;;;;;;;;;;24.00;99.90;;;;;;5010959;28;20255;-74
2021/05/04 10:55:11;;;;;;;;;;;24.20;99.90;;;;;;4994561;28;19959;-74
2021/05/04 10:57:55;;;;;;;;;;;24.50;99.90;;;;;;5015547;28;20388;-73
2021/05/04 11:00:46;;;;;;;;;;;24.10;99.90;;;;;;5020934;28;19917;-73
2021/05/04 11:03:34;;;;;;;;;;;23.20;99.90;;;;;;5034309;28;19955;-73
2021/05/04 11:06:08;;;;;;;;;;;22.80;99.90;;;;;;5030164;28;19917;-74
2021/05/04 11:08:40;;;;;;;;;;;21.70;99.90;;;;;;5038370;28;19923;-73
2021/05/04 11:11:25;;;;;;;;;;;21.10;99.90;;;;;;5035185;28;19956;-74
2021/05/04 11:13:52;;;;;;;;;;;20.30;99.90;;;;;;5034714;28;19921;-74
2021/05/04 11:16:41;;;;;;;;;;;19.80;99.90;;;;;;5031163;28;20171;-74
2021/05/04 11:19:18;;;;;;;;;;;19.80;99.90;;;;;;5015909;28;19958;-74
2021/05/04 11:21:44;;;;;;;;;;;19.60;99.90;;;;;;5038509;28;19917;-74
2021/05/04 11:24:11;;;;;;;;;;;19.70;99.90;;;;;;5034862;28;19914;-73
2021/05/04 11:26:53;;;;;;;;;;;19.40;99.90;;;;;;5029576;28;19913;-74
2021/05/04 11:29:20;;;;;;;;;;;19.20;99.90;;;;;;5042015;28;20016;-74
2021/05/04 11:31:46;;;;;;;;;;;19.10;99.90;;;;;;5044423;28;19918;-74
2021/05/04 11:34:42;;;;;;;;;;;19.10;99.90;;;;;;5041299;28;19946;-73
2021/05/04 11:37:12;;;;;;;;;;;19.20;99.90;;;;;;5019895;28;19913;-74
2021/05/04 11:39:38;;;;;;;;;;;19.10;99.90;;;;;;5037081;28;19920;-73
2021/05/04 11:42:04;;;;;;;;;;;19.40;99.90;;;;;;5017299;28;20432;-73
2021/05/04 11:44:31;;;;;;;;;;;20.00;99.90;;;;;;5036186;28;19918;-74
2021/05/04 11:47:16;;;;;;;;;;;20.20;99.90;;;;;;5033125;28;19921;-74
2021/05/04 11:49:42;;;;;;;;;;;19.40;99.90;;;;;;5010073;28;19924;-74
2021/05/04 11:52:08;;;;;;;;;;;18.90;99.90;;;;;;5022653;28;19925;-74
2021/05/04 11:54:35;;;;;;;;;;;18.80;99.90;;;;;;5007709;28;19917;-74
2021/05/04 11:57:01;;;;;;;;;;;18.70;99.90;;;;;;5030946;28;20238;-74
2021/05/04 11:59:26;;;;;;;;;;;18.20;99.90;;;;;;5022023;28;19964;-73
2021/05/04 12:01:52;;;;;;;;;;;18.10;99.90;;;;;;5017689;28;20028;-73
2021/05/04 12:04:18;;;;;;;;;;;17.80;99.90;;;;;;5021716;28;20358;-73
2021/05/04 12:06:47;;;;;;;;;;;17.70;99.90;;;;;;5016504;28;19918;-74
2021/05/04 12:09:14;;;;;;;;;;;17.90;99.90;;;;;;5009827;28;19914;-74
2021/05/04 12:11:39;;;;;;;;;;;17.70;99.90;;;;;;5020894;28;19924;-73
2021/05/04 12:14:05;;;;;;;;;;;17.70;99.90;;;;;;5013008;28;19917;-74
2021/05/04 12:16:30;;;;;;;;;;;17.60;99.90;;;;;;5028995;28;20305;-74
2021/05/04 12:18:56;;;;;;;;;;;17.80;99.90;;;;;;5017913;28;20024;-73
2021/05/04 12:21:21;;;;;;;;;;;17.70;99.90;;;;;;5034208;28;19924;-74
2021/05/04 12:23:47;;;;;;;;;;;17.50;99.90;;;;;;5021234;28;19991;-74
2021/05/04 12:26:13;;;;;;;;;;;17.30;99.90;;;;;;5021391;28;20019;-74
2021/05/04 12:28:45;;;;;;;;;;;17.20;99.90;;;;;;5028898;28;19914;-74
2021/05/04 12:31:12;;;;;;;;;;;17.30;99.90;;;;;;5020501;28;19923;-74
2021/05/04 12:33:39;;;;;;;;;;;17.30;99.90;;;;;;5035464;28;19991;-74
2021/05/04 12:36:11;;;;;;;;;;;17.40;99.90;;;;;;5016978;28;19924;-73
2021/05/04 12:38:41;;;;;;;;;;;17.60;99.90;;;;;;5030746;28;19953;-72
2021/05/04 12:41:16;;;;;;;;;;;17.60;99.90;;;;;;5014859;28;20341;-73
2021/05/04 12:44:04;;;;;;;;;;;17.60;99.90;;;;;;5024250;28;19913;-73
2021/05/04 12:46:33;;;;;;;;;;;17.50;99.90;;;;;;5012004;28;19917;-73
2021/05/04 12:49:00;;;;;;;;;;;17.30;99.90;;;;;;5024866;28;19917;-73
2021/05/04 12:51:29;;;;;;;;;;;17.20;99.90;;;;;;5030753;28;19918;-74
2021/05/04 12:54:14;;;;;;;;;;;17.20;99.90;;;;;;4991182;28;20104;-74
2021/05/04 12:56:40;;;;;;;;;;;17.30;99.90;;;;;;5031685;28;20349;-74
2021/05/04 12:59:06;;;;;;;;;;;17.10;99.90;;;;;;5022324;28;19913;-73
2021/05/04 13:01:33;;;;;;;;;;;17.20;99.90;;;;;;5061231;22;20293;-74
2021/05/04 13:04:01;;;;;;;;;;;17.40;99.90;;;;;;5051582;28;19912;-74
2021/05/04 13:06:32;;;;;;;;;;;17.30;99.90;;;;;;5051168;28;20001;-74
2021/05/04 13:09:09;;;;;;;;;;;17.40;99.90;;;;;;5049313;28;19919;-74
2021/05/04 13:11:36;;;;;;;;;;;17.30;99.90;;;;;;5064245;28;19940;-74
2021/05/04 13:14:27;;;;;;;;;;;17.30;99.90;;;;;;5065750;28;19913;-74
2021/05/04 13:29:01;;;;;;;;;;;17.30;99.90;;;;;;5050644;28;19920;-73
2021/05/04 13:31:26;;;;;;;;;;;17.00;99.90;;;;;;5050193;28;20008;-73
2021/05/04 13:33:52;;;;;;;;;;;17.10;99.90;;;;;;5033651;28;19927;-73
2021/05/04 13:36:18;;;;;;;;;;;17.20;99.90;;;;;;5052048;28;19912;-75
2021/05/04 13:39:05;;;;;;;;;;;17.20;99.90;;;;;;5051326;28;19917;-73
2021/05/04 13:49:43;;;;;;;;;;;16.80;99.90;;;;;;5050829;28;19931;-74
2021/05/04 13:52:09;;;;;;;;;;;16.90;99.90;;;;;;5051645;28;19916;-73
2021/05/04 13:54:34;;;;;;;;;;;17.10;99.90;;;;;;5051433;28;19948;-73
2021/05/04 13:57:03;;;;;;;;;;;17.20;99.90;;;;;;5052822;28;20016;-73
2021/05/04 13:59:28;;;;;;;;;;;17.40;99.90;;;;;;5054274;28;19969;-73
2021/05/04 14:02:06;;;;;;;;;;;17.50;99.90;;;;;;5049990;28;19924;-73
2021/05/04 14:28:00;;;;;;;;;;;16.90;99.90;;;;;;5050204;28;19913;-74
2021/05/04 14:30:25;;;;;;;;;;;16.90;99.90;;;;;;5050474;28;19913;-73
2021/05/04 14:32:51;;;;;;;;;;;16.90;99.90;;;;;;5049710;28;19920;-73
2021/05/04 14:35:31;;;;;;;;;;;16.90;99.90;;;;;;5053484;28;20050;-74
2021/05/04 14:38:10;;;;;;;;;;;16.80;99.90;;;;;;5046384;28;20006;-74
2021/05/04 14:41:02;;;;;;;;;;;16.80;99.90;;;;;;5049445;28;19924;-73
2021/05/04 14:59:52;;;;;;;;;;;16.80;99.90;;;;;;5001650;28;19916;-74
2021/05/04 15:02:18;;;;;;;;;;;16.80;99.90;;;;;;5064324;28;20040;-74
2021/05/04 15:04:46;;;;;;;;;;;16.90;99.90;;;;;;5049635;28;20733;-74
2021/05/04 15:07:12;;;;;;;;;;;16.90;99.90;;;;;;5067524;28;20288;-73
2021/05/04 15:09:37;;;;;;;;;;;16.80;99.90;;;;;;5053895;28;19913;-73
2021/05/04 15:12:05;;;;;;;;;;;16.80;99.90;;;;;;5038681;28;20260;-73
2021/05/04 15:17:27;;;;;;;;;;;16.70;99.90;;;;;;5069577;28;20003;-73
2021/05/04 15:22:37;;;;;;;;;;;16.60;99.90;;;;;;5064367;28;19939;-75
2021/05/04 15:25:03;;;;;;;;;;;16.60;99.90;;;;;;5063405;28;19912;-75
2021/05/04 15:27:28;;;;;;;;;;;16.60;99.90;;;;;;5060159;28;20309;-74
2021/05/04 15:29:54;;;;;;;;;;;16.60;99.90;;;;;;5058877;28;20277;-75
2021/05/04 15:32:39;;;;;;;;;;;16.50;99.90;;;;;;5048739;28;20003;-74
2021/05/04 15:35:05;;;;;;;;;;;16.60;99.90;;;;;;5048182;28;20007;-74
2021/05/04 15:37:31;;;;;;;;;;;16.40;99.90;;;;;;5051028;28;19924;-74
2021/05/04 15:39:58;;;;;;;;;;;16.40;99.90;;;;;;5049109;28;20507;-74
2021/05/04 15:42:27;;;;;;;;;;;16.30;99.90;;;;;;5048532;28;19947;-74
2021/05/04 15:44:58;;;;;;;;;;;16.40;99.90;;;;;;5053414;28;19912;-75
2021/05/04 15:50:07;;;;;;;;;;;16.20;99.90;;;;;;5048655;28;20421;-76
2021/05/04 16:03:43;;;;;;;;;;;16.00;99.90;;;;;;5048627;28;20002;-75